sensor_id;sensor_type;location;lat;lon;timestamp;P1;durP1;ratioP1;P2;durP2;ratioP2
18296;SDS011;18066;52.106;5.534;2022-08-07T00:00:21;3.63;;;2.77;;
18296;SDS011;18066;52.106;5.534;2022-08-07T00:02:49;2.87;;;2.60;;
18296;SDS011;18066;52.106;5.534;2022-08-07T00:05:16;6.33;;;2.97;;
18296;SDS011;18066;52.106;5.534;2022-08-07T00:07:42;3.33;;;3.00;;
18296;SDS011;18066;52.106;5.534;2022-08-07T00:10:09;4.17;;;3.00;;
18296;SDS011;18066;52.106;5.534;2022-08-07T00:12:36;3.97;;;3.57;;
18296;SDS011;18066;52.106;5.534;2022-08-07T00:15:03;5.87;;;3.40;;
18296;SDS011;18066;52.106;5.534;2022-08-07T00:17:30;4.47;;;3.50;;
18296;SDS011;18066;52.106;5.534;2022-08-07T00:19:58;5.43;;;3.57;;
18296;SDS011;18066;52.106;5.534;2022-08-07T00:22:25;5.97;;;3.73;;
18296;SDS011;18066;52.106;5.534;2022-08-07T00:24:52;3.50;;;3.00;;
18296;SDS011;18066;52.106;5.534;2022-08-07T00:27:18;4.03;;;3.27;;
18296;SDS011;18066;52.106;5.534;2022-08-07T00:29:45;3.73;;;2.97;;
18296;SDS011;18066;52.106;5.534;2022-08-07T00:32:12;5.23;;;2.80;;
18296;SDS011;18066;52.106;5.534;2022-08-07T00:34:38;5.97;;;3.10;;
18296;SDS011;18066;52.106;5.534;2022-08-07T00:37:07;3.27;;;2.70;;
18296;SDS011;18066;52.106;5.534;2022-08-07T00:39:33;3.40;;;3.10;;
18296;SDS011;18066;52.106;5.534;2022-08-07T00:42:01;3.80;;;2.80;;
18296;SDS011;18066;52.106;5.534;2022-08-07T00:44:27;3.23;;;2.80;;
18296;SDS011;18066;52.106;5.534;2022-08-07T00:46:54;3.27;;;2.67;;
18296;SDS011;18066;52.106;5.534;2022-08-07T00:49:21;3.53;;;3.10;;
18296;SDS011;18066;52.106;5.534;2022-08-07T00:51:48;3.23;;;2.70;;
18296;SDS011;18066;52.106;5.534;2022-08-07T00:54:16;3.83;;;2.77;;
18296;SDS011;18066;52.106;5.534;2022-08-07T00:56:43;4.17;;;3.07;;
18296;SDS011;18066;52.106;5.534;2022-08-07T00:59:09;2.80;;;2.50;;
18296;SDS011;18066;52.106;5.534;2022-08-07T01:01:36;4.10;;;2.93;;
18296;SDS011;18066;52.106;5.534;2022-08-07T01:04:03;4.90;;;2.80;;
18296;SDS011;18066;52.106;5.534;2022-08-07T01:06:30;4.97;;;3.20;;
18296;SDS011;18066;52.106;5.534;2022-08-07T01:08:58;2.93;;;2.20;;
18296;SDS011;18066;52.106;5.534;2022-08-07T01:11:27;4.10;;;2.70;;
18296;SDS011;18066;52.106;5.534;2022-08-07T01:13:54;4.53;;;3.03;;
18296;SDS011;18066;52.106;5.534;2022-08-07T01:16:22;3.77;;;3.37;;
18296;SDS011;18066;52.106;5.534;2022-08-07T01:18:49;2.53;;;2.00;;
18296;SDS011;18066;52.106;5.534;2022-08-07T01:21:17;2.47;;;2.27;;
18296;SDS011;18066;52.106;5.534;2022-08-07T01:23:46;2.67;;;2.47;;
18296;SDS011;18066;52.106;5.534;2022-08-07T01:26:14;3.97;;;2.90;;
18296;SDS011;18066;52.106;5.534;2022-08-07T01:28:42;2.80;;;2.60;;
18296;SDS011;18066;52.106;5.534;2022-08-07T01:31:10;3.07;;;2.43;;
18296;SDS011;18066;52.106;5.534;2022-08-07T01:33:37;4.73;;;2.87;;
18296;SDS011;18066;52.106;5.534;2022-08-07T01:36:04;7.10;;;2.83;;
18296;SDS011;18066;52.106;5.534;2022-08-07T01:38:35;2.80;;;2.47;;
18296;SDS011;18066;52.106;5.534;2022-08-07T01:41:03;3.57;;;3.27;;
18296;SDS011;18066;52.106;5.534;2022-08-07T01:43:32;3.13;;;2.50;;
18296;SDS011;18066;52.106;5.534;2022-08-07T01:45:59;3.77;;;2.73;;
18296;SDS011;18066;52.106;5.534;2022-08-07T01:48:26;5.00;;;3.13;;
18296;SDS011;18066;52.106;5.534;2022-08-07T01:50:54;4.13;;;2.97;;
18296;SDS011;18066;52.106;5.534;2022-08-07T01:53:24;3.07;;;2.77;;
18296;SDS011;18066;52.106;5.534;2022-08-07T01:55:55;4.20;;;2.60;;
18296;SDS011;18066;52.106;5.534;2022-08-07T01:58:27;3.43;;;1.90;;
18296;SDS011;18066;52.106;5.534;2022-08-07T02:00:57;2.10;;;1.90;;
18296;SDS011;18066;52.106;5.534;2022-08-07T02:03:27;3.70;;;2.40;;
18296;SDS011;18066;52.106;5.534;2022-08-07T02:05:59;2.83;;;2.07;;
18296;SDS011;18066;52.106;5.534;2022-08-07T02:08:29;2.97;;;2.53;;
18296;SDS011;18066;52.106;5.534;2022-08-07T02:11:03;2.50;;;2.30;;
18296;SDS011;18066;52.106;5.534;2022-08-07T02:13:30;1.97;;;1.77;;
18296;SDS011;18066;52.106;5.534;2022-08-07T02:15:59;1.27;;;1.17;;
18296;SDS011;18066;52.106;5.534;2022-08-07T02:18:28;1.50;;;1.40;;
18296;SDS011;18066;52.106;5.534;2022-08-07T02:20:57;1.20;;;1.10;;
18296;SDS011;18066;52.106;5.534;2022-08-07T02:23:25;1.80;;;1.70;;
18296;SDS011;18066;52.106;5.534;2022-08-07T02:25:54;3.23;;;1.83;;
18296;SDS011;18066;52.106;5.534;2022-08-07T02:28:26;1.50;;;1.40;;
18296;SDS011;18066;52.106;5.534;2022-08-07T02:30:55;1.77;;;1.40;;
18296;SDS011;18066;52.106;5.534;2022-08-07T02:33:23;2.30;;;1.30;;
18296;SDS011;18066;52.106;5.534;2022-08-07T02:35:51;1.90;;;1.70;;
18296;SDS011;18066;52.106;5.534;2022-08-07T02:38:19;1.70;;;1.60;;
18296;SDS011;18066;52.106;5.534;2022-08-07T02:40:51;3.03;;;1.70;;
18296;SDS011;18066;52.106;5.534;2022-08-07T02:43:18;2.60;;;1.90;;
18296;SDS011;18066;52.106;5.534;2022-08-07T02:45:46;1.77;;;1.67;;
18296;SDS011;18066;52.106;5.534;2022-08-07T02:48:16;1.93;;;1.73;;
18296;SDS011;18066;52.106;5.534;2022-08-07T02:50:43;2.40;;;2.07;;
18296;SDS011;18066;52.106;5.534;2022-08-07T02:53:14;2.37;;;2.00;;
18296;SDS011;18066;52.106;5.534;2022-08-07T02:55:46;1.80;;;1.70;;
18296;SDS011;18066;52.106;5.534;2022-08-07T02:58:15;3.17;;;1.80;;
18296;SDS011;18066;52.106;5.534;2022-08-07T03:00:44;2.70;;;2.13;;
18296;SDS011;18066;52.106;5.534;2022-08-07T03:03:16;1.70;;;1.60;;
18296;SDS011;18066;52.106;5.534;2022-08-07T03:05:44;3.60;;;2.40;;
18296;SDS011;18066;52.106;5.534;2022-08-07T03:08:12;2.60;;;2.33;;
18296;SDS011;18066;52.106;5.534;2022-08-07T03:10:39;2.77;;;2.10;;
18296;SDS011;18066;52.106;5.534;2022-08-07T03:13:06;5.47;;;2.33;;
18296;SDS011;18066;52.106;5.534;2022-08-07T03:15:34;2.37;;;1.90;;
18296;SDS011;18066;52.106;5.534;2022-08-07T03:18:02;2.40;;;2.20;;
18296;SDS011;18066;52.106;5.534;2022-08-07T03:20:29;5.40;;;2.30;;
18296;SDS011;18066;52.106;5.534;2022-08-07T03:22:56;6.60;;;2.47;;
18296;SDS011;18066;52.106;5.534;2022-08-07T03:25:24;1.63;;;1.50;;
18296;SDS011;18066;52.106;5.534;2022-08-07T03:27:54;3.00;;;1.77;;
18296;SDS011;18066;52.106;5.534;2022-08-07T03:30:22;2.43;;;2.10;;
18296;SDS011;18066;52.106;5.534;2022-08-07T03:32:50;3.77;;;1.93;;
18296;SDS011;18066;52.106;5.534;2022-08-07T03:35:21;3.90;;;2.20;;
18296;SDS011;18066;52.106;5.534;2022-08-07T03:37:52;5.77;;;2.80;;
18296;SDS011;18066;52.106;5.534;2022-08-07T03:40:21;3.60;;;2.30;;
18296;SDS011;18066;52.106;5.534;2022-08-07T03:42:49;4.03;;;2.30;;
18296;SDS011;18066;52.106;5.534;2022-08-07T03:45:17;2.90;;;2.60;;
18296;SDS011;18066;52.106;5.534;2022-08-07T03:47:44;3.63;;;2.53;;
18296;SDS011;18066;52.106;5.534;2022-08-07T03:50:11;3.73;;;2.33;;
18296;SDS011;18066;52.106;5.534;2022-08-07T03:52:40;4.07;;;1.93;;
18296;SDS011;18066;52.106;5.534;2022-08-07T03:55:09;5.47;;;1.93;;
18296;SDS011;18066;52.106;5.534;2022-08-07T03:57:36;2.57;;;1.97;;
18296;SDS011;18066;52.106;5.534;2022-08-07T04:00:04;2.53;;;1.87;;
18296;SDS011;18066;52.106;5.534;2022-08-07T04:02:31;4.37;;;2.40;;
18296;SDS011;18066;52.106;5.534;2022-08-07T04:04:58;2.40;;;2.20;;
18296;SDS011;18066;52.106;5.534;2022-08-07T04:07:25;2.27;;;2.07;;
18296;SDS011;18066;52.106;5.534;2022-08-07T04:09:53;4.33;;;2.30;;
18296;SDS011;18066;52.106;5.534;2022-08-07T04:12:20;2.20;;;2.00;;
18296;SDS011;18066;52.106;5.534;2022-08-07T04:14:47;2.00;;;1.80;;
18296;SDS011;18066;52.106;5.534;2022-08-07T04:17:14;2.30;;;1.70;;
18296;SDS011;18066;52.106;5.534;2022-08-07T04:19:41;1.73;;;1.43;;
18296;SDS011;18066;52.106;5.534;2022-08-07T04:22:08;2.97;;;2.57;;
18296;SDS011;18066;52.106;5.534;2022-08-07T04:24:36;2.90;;;2.17;;
18296;SDS011;18066;52.106;5.534;2022-08-07T04:27:05;4.27;;;2.10;;
18296;SDS011;18066;52.106;5.534;2022-08-07T04:29:31;1.87;;;1.77;;
18296;SDS011;18066;52.106;5.534;2022-08-07T04:31:58;2.97;;;2.30;;
18296;SDS011;18066;52.106;5.534;2022-08-07T04:34:26;3.43;;;2.60;;
18296;SDS011;18066;52.106;5.534;2022-08-07T04:36:53;3.23;;;2.57;;
18296;SDS011;18066;52.106;5.534;2022-08-07T04:39:20;2.70;;;2.23;;
18296;SDS011;18066;52.106;5.534;2022-08-07T04:41:47;3.10;;;2.00;;
18296;SDS011;18066;52.106;5.534;2022-08-07T04:44:15;3.00;;;2.13;;
18296;SDS011;18066;52.106;5.534;2022-08-07T04:46:43;2.10;;;1.90;;
18296;SDS011;18066;52.106;5.534;2022-08-07T04:49:17;3.07;;;2.00;;
18296;SDS011;18066;52.106;5.534;2022-08-07T04:51:52;7.03;;;2.20;;
18296;SDS011;18066;52.106;5.534;2022-08-07T04:54:27;2.50;;;2.27;;
18296;SDS011;18066;52.106;5.534;2022-08-07T04:57:01;2.87;;;2.20;;
18296;SDS011;18066;52.106;5.534;2022-08-07T04:59:38;3.57;;;2.77;;
18296;SDS011;18066;52.106;5.534;2022-08-07T05:02:13;2.70;;;2.50;;
18296;SDS011;18066;52.106;5.534;2022-08-07T05:04:45;3.00;;;2.70;;
18296;SDS011;18066;52.106;5.534;2022-08-07T05:07:19;4.37;;;2.60;;
18296;SDS011;18066;52.106;5.534;2022-08-07T05:09:51;3.37;;;2.50;;
18296;SDS011;18066;52.106;5.534;2022-08-07T05:12:25;2.60;;;2.40;;
18296;SDS011;18066;52.106;5.534;2022-08-07T05:14:59;5.03;;;2.80;;
18296;SDS011;18066;52.106;5.534;2022-08-07T05:17:40;2.87;;;2.57;;
18296;SDS011;18066;52.106;5.534;2022-08-07T05:20:10;4.63;;;2.90;;
18296;SDS011;18066;52.106;5.534;2022-08-07T05:22:39;5.20;;;3.03;;
18296;SDS011;18066;52.106;5.534;2022-08-07T05:25:07;5.50;;;3.10;;
18296;SDS011;18066;52.106;5.534;2022-08-07T05:27:36;3.00;;;2.70;;
18296;SDS011;18066;52.106;5.534;2022-08-07T05:30:06;3.30;;;2.90;;
18296;SDS011;18066;52.106;5.534;2022-08-07T05:32:34;4.53;;;3.13;;
18296;SDS011;18066;52.106;5.534;2022-08-07T05:35:02;4.77;;;3.63;;
18296;SDS011;18066;52.106;5.534;2022-08-07T05:37:31;4.70;;;3.30;;
18296;SDS011;18066;52.106;5.534;2022-08-07T05:39:58;4.53;;;3.23;;
18296;SDS011;18066;52.106;5.534;2022-08-07T05:42:25;3.87;;;3.13;;
18296;SDS011;18066;52.106;5.534;2022-08-07T05:44:53;9.47;;;4.13;;
18296;SDS011;18066;52.106;5.534;2022-08-07T05:47:21;4.57;;;3.63;;
18296;SDS011;18066;52.106;5.534;2022-08-07T05:49:49;4.90;;;3.50;;
18296;SDS011;18066;52.106;5.534;2022-08-07T05:52:17;4.37;;;3.03;;
18296;SDS011;18066;52.106;5.534;2022-08-07T05:54:44;4.83;;;3.83;;
18296;SDS011;18066;52.106;5.534;2022-08-07T05:57:10;5.27;;;3.90;;
18296;SDS011;18066;52.106;5.534;2022-08-07T05:59:39;7.57;;;4.10;;
18296;SDS011;18066;52.106;5.534;2022-08-07T06:02:07;8.53;;;4.33;;
18296;SDS011;18066;52.106;5.534;2022-08-07T06:04:40;6.00;;;4.93;;
18296;SDS011;18066;52.106;5.534;2022-08-07T06:07:11;10.40;;;5.63;;
18296;SDS011;18066;52.106;5.534;2022-08-07T06:09:38;8.80;;;4.73;;
18296;SDS011;18066;52.106;5.534;2022-08-07T06:12:06;7.23;;;4.23;;
18296;SDS011;18066;52.106;5.534;2022-08-07T06:14:33;12.63;;;5.43;;
18296;SDS011;18066;52.106;5.534;2022-08-07T06:17:00;7.23;;;4.83;;
18296;SDS011;18066;52.106;5.534;2022-08-07T06:19:29;9.27;;;5.30;;
18296;SDS011;18066;52.106;5.534;2022-08-07T06:21:57;8.60;;;5.10;;
18296;SDS011;18066;52.106;5.534;2022-08-07T06:24:24;9.25;;;4.60;;
18296;SDS011;18066;52.106;5.534;2022-08-07T06:26:50;7.75;;;5.07;;
18296;SDS011;18066;52.106;5.534;2022-08-07T06:29:17;7.25;;;5.28;;
18296;SDS011;18066;52.106;5.534;2022-08-07T06:31:44;8.25;;;5.43;;
18296;SDS011;18066;52.106;5.534;2022-08-07T06:34:10;9.70;;;5.05;;
18296;SDS011;18066;52.106;5.534;2022-08-07T06:36:37;9.48;;;4.88;;
18296;SDS011;18066;52.106;5.534;2022-08-07T06:39:05;10.60;;;5.07;;
18296;SDS011;18066;52.106;5.534;2022-08-07T06:41:34;8.55;;;5.55;;
18296;SDS011;18066;52.106;5.534;2022-08-07T06:44:06;6.18;;;5.07;;
18296;SDS011;18066;52.106;5.534;2022-08-07T06:46:36;10.65;;;7.43;;
18296;SDS011;18066;52.106;5.534;2022-08-07T06:49:03;11.68;;;7.13;;
18296;SDS011;18066;52.106;5.534;2022-08-07T06:51:32;11.27;;;7.13;;
18296;SDS011;18066;52.106;5.534;2022-08-07T06:54:02;10.02;;;7.20;;
18296;SDS011;18066;52.106;5.534;2022-08-07T06:56:32;12.48;;;7.95;;
18296;SDS011;18066;52.106;5.534;2022-08-07T06:59:08;12.60;;;8.25;;
18296;SDS011;18066;52.106;5.534;2022-08-07T07:01:37;11.70;;;7.32;;
18296;SDS011;18066;52.106;5.534;2022-08-07T07:04:06;13.88;;;7.45;;
18296;SDS011;18066;52.106;5.534;2022-08-07T07:06:33;13.00;;;7.55;;
18296;SDS011;18066;52.106;5.534;2022-08-07T07:09:16;10.40;;;6.50;;
18296;SDS011;18066;52.106;5.534;2022-08-07T07:11:52;10.10;;;7.57;;
18296;SDS011;18066;52.106;5.534;2022-08-07T07:14:27;11.52;;;7.43;;
18296;SDS011;18066;52.106;5.534;2022-08-07T07:16:58;8.75;;;5.90;;
18296;SDS011;18066;52.106;5.534;2022-08-07T07:19:31;12.40;;;6.55;;
18296;SDS011;18066;52.106;5.534;2022-08-07T07:22:02;13.60;;;6.22;;
18296;SDS011;18066;52.106;5.534;2022-08-07T07:24:29;11.23;;;6.75;;
18296;SDS011;18066;52.106;5.534;2022-08-07T07:26:58;9.85;;;7.05;;
18296;SDS011;18066;52.106;5.534;2022-08-07T07:29:29;13.02;;;7.28;;
18296;SDS011;18066;52.106;5.534;2022-08-07T07:32:02;19.58;;;7.50;;
18296;SDS011;18066;52.106;5.534;2022-08-07T07:34:32;10.18;;;7.30;;
18296;SDS011;18066;52.106;5.534;2022-08-07T07:37:02;8.30;;;6.40;;
18296;SDS011;18066;52.106;5.534;2022-08-07T07:39:29;10.85;;;5.70;;
18296;SDS011;18066;52.106;5.534;2022-08-07T07:41:58;7.95;;;4.85;;
18296;SDS011;18066;52.106;5.534;2022-08-07T07:44:26;6.15;;;4.65;;
18296;SDS011;18066;52.106;5.534;2022-08-07T07:46:55;5.68;;;4.60;;
18296;SDS011;18066;52.106;5.534;2022-08-07T07:49:25;5.25;;;3.45;;
18296;SDS011;18066;52.106;5.534;2022-08-07T07:51:53;4.32;;;3.58;;
18296;SDS011;18066;52.106;5.534;2022-08-07T07:54:22;2.92;;;2.47;;
18296;SDS011;18066;52.106;5.534;2022-08-07T07:56:51;5.88;;;2.67;;
18296;SDS011;18066;52.106;5.534;2022-08-07T07:59:20;2.47;;;2.05;;
18296;SDS011;18066;52.106;5.534;2022-08-07T08:01:48;4.90;;;3.38;;
18296;SDS011;18066;52.106;5.534;2022-08-07T08:04:17;4.55;;;2.75;;
18296;SDS011;18066;52.106;5.534;2022-08-07T08:06:45;3.55;;;2.75;;
18296;SDS011;18066;52.106;5.534;2022-08-07T08:09:14;5.13;;;3.22;;
18296;SDS011;18066;52.106;5.534;2022-08-07T08:11:43;5.45;;;3.40;;
18296;SDS011;18066;52.106;5.534;2022-08-07T08:14:10;4.32;;;3.45;;
18296;SDS011;18066;52.106;5.534;2022-08-07T08:16:39;8.85;;;3.60;;
18296;SDS011;18066;52.106;5.534;2022-08-07T08:19:11;4.03;;;3.13;;
18296;SDS011;18066;52.106;5.534;2022-08-07T08:21:40;3.97;;;2.80;;
18296;SDS011;18066;52.106;5.534;2022-08-07T08:24:28;4.03;;;3.22;;
18296;SDS011;18066;52.106;5.534;2022-08-07T08:27:15;3.55;;;2.70;;
18296;SDS011;18066;52.106;5.534;2022-08-07T08:29:45;12.13;;;3.30;;
18296;SDS011;18066;52.106;5.534;2022-08-07T08:32:19;5.35;;;3.25;;
18296;SDS011;18066;52.106;5.534;2022-08-07T08:34:47;6.88;;;3.70;;
18296;SDS011;18066;52.106;5.534;2022-08-07T08:37:15;3.42;;;2.75;;
18296;SDS011;18066;52.106;5.534;2022-08-07T08:39:43;5.43;;;3.50;;
18296;SDS011;18066;52.106;5.534;2022-08-07T08:42:12;6.57;;;3.08;;
18296;SDS011;18066;52.106;5.534;2022-08-07T08:44:47;4.03;;;3.03;;
18296;SDS011;18066;52.106;5.534;2022-08-07T08:47:24;3.65;;;3.05;;
18296;SDS011;18066;52.106;5.534;2022-08-07T08:49:55;3.65;;;3.03;;
18296;SDS011;18066;52.106;5.534;2022-08-07T08:52:30;3.80;;;2.70;;
18296;SDS011;18066;52.106;5.534;2022-08-07T08:55:00;7.15;;;3.47;;
18296;SDS011;18066;52.106;5.534;2022-08-07T08:57:33;7.18;;;2.80;;
18296;SDS011;18066;52.106;5.534;2022-08-07T09:00:04;3.45;;;2.78;;
18296;SDS011;18066;52.106;5.534;2022-08-07T09:02:36;4.72;;;2.55;;
18296;SDS011;18066;52.106;5.534;2022-08-07T09:05:21;3.50;;;2.53;;
18296;SDS011;18066;52.106;5.534;2022-08-07T09:07:52;3.75;;;2.85;;
18296;SDS011;18066;52.106;5.534;2022-08-07T09:10:26;5.13;;;2.72;;
18296;SDS011;18066;52.106;5.534;2022-08-07T09:13:00;3.45;;;2.15;;
18296;SDS011;18066;52.106;5.534;2022-08-07T09:15:36;2.80;;;2.60;;
18296;SDS011;18066;52.106;5.534;2022-08-07T09:18:17;3.03;;;2.70;;
18296;SDS011;18066;52.106;5.534;2022-08-07T09:20:53;5.82;;;2.80;;
18296;SDS011;18066;52.106;5.534;2022-08-07T09:23:30;2.80;;;2.13;;
18296;SDS011;18066;52.106;5.534;2022-08-07T09:26:13;3.42;;;2.75;;
18296;SDS011;18066;52.106;5.534;2022-08-07T09:28:44;4.72;;;2.63;;
18296;SDS011;18066;52.106;5.534;2022-08-07T09:31:19;4.50;;;2.58;;
18296;SDS011;18066;52.106;5.534;2022-08-07T09:34:02;3.05;;;2.20;;
18296;SDS011;18066;52.106;5.534;2022-08-07T09:36:38;3.90;;;2.00;;
18296;SDS011;18066;52.106;5.534;2022-08-07T09:39:15;2.20;;;1.95;;
18296;SDS011;18066;52.106;5.534;2022-08-07T09:41:53;3.05;;;2.00;;
18296;SDS011;18066;52.106;5.534;2022-08-07T09:44:31;3.47;;;2.03;;
18296;SDS011;18066;52.106;5.534;2022-08-07T09:47:08;2.75;;;2.17;;
18296;SDS011;18066;52.106;5.534;2022-08-07T09:49:51;4.35;;;1.90;;
18296;SDS011;18066;52.106;5.534;2022-08-07T09:52:25;2.13;;;1.92;;
18296;SDS011;18066;52.106;5.534;2022-08-07T09:54:57;2.40;;;2.10;;
18296;SDS011;18066;52.106;5.534;2022-08-07T09:57:38;3.60;;;2.20;;
18296;SDS011;18066;52.106;5.534;2022-08-07T10:00:21;3.08;;;2.03;;
18296;SDS011;18066;52.106;5.534;2022-08-07T10:06:08;2.00;;;1.67;;
18296;SDS011;18066;52.106;5.534;2022-08-07T10:08:52;2.20;;;1.92;;
18296;SDS011;18066;52.106;5.534;2022-08-07T10:11:43;4.28;;;2.17;;
18296;SDS011;18066;52.106;5.534;2022-08-07T10:14:35;2.00;;;1.75;;
18296;SDS011;18066;52.106;5.534;2022-08-07T10:17:24;2.50;;;1.75;;
18296;SDS011;18066;52.106;5.534;2022-08-07T10:20:07;4.85;;;1.92;;
18296;SDS011;18066;52.106;5.534;2022-08-07T10:22:46;4.03;;;1.63;;
18296;SDS011;18066;52.106;5.534;2022-08-07T10:25:30;2.65;;;1.77;;
18296;SDS011;18066;52.106;5.534;2022-08-07T10:28:15;2.42;;;1.55;;
18296;SDS011;18066;52.106;5.534;2022-08-07T10:30:56;2.40;;;1.83;;
18296;SDS011;18066;52.106;5.534;2022-08-07T10:33:54;3.67;;;1.88;;
18296;SDS011;18066;52.106;5.534;2022-08-07T10:36:33;1.95;;;1.75;;
18296;SDS011;18066;52.106;5.534;2022-08-07T10:39:09;1.98;;;1.50;;
18296;SDS011;18066;52.106;5.534;2022-08-07T10:41:50;2.00;;;1.60;;
18296;SDS011;18066;52.106;5.534;2022-08-07T10:44:24;2.47;;;1.50;;
18296;SDS011;18066;52.106;5.534;2022-08-07T10:47:00;2.63;;;1.48;;
18296;SDS011;18066;52.106;5.534;2022-08-07T10:49:45;3.88;;;1.98;;
18296;SDS011;18066;52.106;5.534;2022-08-07T10:52:20;2.45;;;1.90;;
18296;SDS011;18066;52.106;5.534;2022-08-07T10:54:55;2.85;;;2.25;;
18296;SDS011;18066;52.106;5.534;2022-08-07T10:57:31;2.75;;;1.77;;
18296;SDS011;18066;52.106;5.534;2022-08-07T11:00:05;4.45;;;1.55;;
18296;SDS011;18066;52.106;5.534;2022-08-07T11:02:36;3.10;;;1.70;;
18296;SDS011;18066;52.106;5.534;2022-08-07T11:05:10;4.47;;;1.70;;
18296;SDS011;18066;52.106;5.534;2022-08-07T11:07:52;2.92;;;1.40;;
18296;SDS011;18066;52.106;5.534;2022-08-07T11:10:27;2.30;;;1.40;;
18296;SDS011;18066;52.106;5.534;2022-08-07T11:13:01;3.33;;;1.60;;
18296;SDS011;18066;52.106;5.534;2022-08-07T11:15:33;2.53;;;1.35;;
18296;SDS011;18066;52.106;5.534;2022-08-07T11:18:05;1.30;;;1.20;;
18296;SDS011;18066;52.106;5.534;2022-08-07T11:20:40;3.50;;;1.50;;
18296;SDS011;18066;52.106;5.534;2022-08-07T11:23:15;1.50;;;1.40;;
18296;SDS011;18066;52.106;5.534;2022-08-07T11:25:50;1.45;;;1.25;;
18296;SDS011;18066;52.106;5.534;2022-08-07T11:28:24;1.60;;;1.50;;
18296;SDS011;18066;52.106;5.534;2022-08-07T11:30:55;3.65;;;1.75;;
18296;SDS011;18066;52.106;5.534;2022-08-07T11:33:27;1.92;;;1.33;;
18296;SDS011;18066;52.106;5.534;2022-08-07T11:36:05;2.25;;;1.45;;
18296;SDS011;18066;52.106;5.534;2022-08-07T11:38:42;2.33;;;1.52;;
18296;SDS011;18066;52.106;5.534;2022-08-07T11:41:17;1.90;;;1.40;;
18296;SDS011;18066;52.106;5.534;2022-08-07T11:43:50;2.55;;;1.60;;
18296;SDS011;18066;52.106;5.534;2022-08-07T11:46:26;2.63;;;1.30;;
18296;SDS011;18066;52.106;5.534;2022-08-07T11:49:13;2.33;;;1.45;;
18296;SDS011;18066;52.106;5.534;2022-08-07T11:51:55;1.38;;;1.27;;
18296;SDS011;18066;52.106;5.534;2022-08-07T11:54:37;3.15;;;1.30;;
18296;SDS011;18066;52.106;5.534;2022-08-07T11:57:21;1.55;;;1.10;;
18296;SDS011;18066;52.106;5.534;2022-08-07T11:59:59;1.38;;;1.13;;
18296;SDS011;18066;52.106;5.534;2022-08-07T12:02:34;1.50;;;1.10;;
18296;SDS011;18066;52.106;5.534;2022-08-07T12:05:15;2.42;;;1.10;;
18296;SDS011;18066;52.106;5.534;2022-08-07T12:07:52;1.33;;;0.93;;
18296;SDS011;18066;52.106;5.534;2022-08-07T12:10:26;1.25;;;0.95;;
18296;SDS011;18066;52.106;5.534;2022-08-07T12:13:02;1.40;;;1.25;;
18296;SDS011;18066;52.106;5.534;2022-08-07T12:15:33;1.65;;;1.00;;
18296;SDS011;18066;52.106;5.534;2022-08-07T12:18:07;1.27;;;1.15;;
18296;SDS011;18066;52.106;5.534;2022-08-07T12:20:43;2.25;;;1.20;;
18296;SDS011;18066;52.106;5.534;2022-08-07T12:23:15;2.67;;;1.20;;
18296;SDS011;18066;52.106;5.534;2022-08-07T12:25:50;1.98;;;1.23;;
18296;SDS011;18066;52.106;5.534;2022-08-07T12:28:25;1.63;;;1.10;;
18296;SDS011;18066;52.106;5.534;2022-08-07T12:30:58;1.75;;;1.10;;
18296;SDS011;18066;52.106;5.534;2022-08-07T12:33:28;1.30;;;1.13;;
18296;SDS011;18066;52.106;5.534;2022-08-07T12:35:57;1.60;;;1.10;;
18296;SDS011;18066;52.106;5.534;2022-08-07T12:38:25;4.22;;;1.25;;
18296;SDS011;18066;52.106;5.534;2022-08-07T12:40:52;3.47;;;1.05;;
18296;SDS011;18066;52.106;5.534;2022-08-07T12:43:24;2.22;;;1.10;;
18296;SDS011;18066;52.106;5.534;2022-08-07T12:45:55;1.25;;;1.15;;
18296;SDS011;18066;52.106;5.534;2022-08-07T12:48:35;1.50;;;1.30;;
18296;SDS011;18066;52.106;5.534;2022-08-07T12:51:10;0.80;;;0.80;;
18296;SDS011;18066;52.106;5.534;2022-08-07T12:53:41;1.15;;;0.85;;
18296;SDS011;18066;52.106;5.534;2022-08-07T12:56:17;1.00;;;0.80;;
18296;SDS011;18066;52.106;5.534;2022-08-07T12:58:51;0.63;;;0.63;;
18296;SDS011;18066;52.106;5.534;2022-08-07T13:01:23;1.60;;;1.02;;
18296;SDS011;18066;52.106;5.534;2022-08-07T13:04:03;2.67;;;1.10;;
18296;SDS011;18066;52.106;5.534;2022-08-07T13:06:51;0.82;;;0.63;;
18296;SDS011;18066;52.106;5.534;2022-08-07T13:09:36;1.00;;;0.90;;
18296;SDS011;18066;52.106;5.534;2022-08-07T13:12:21;2.72;;;1.13;;
18296;SDS011;18066;52.106;5.534;2022-08-07T13:15:00;2.35;;;1.10;;
18296;SDS011;18066;52.106;5.534;2022-08-07T13:17:42;2.95;;;1.30;;
18296;SDS011;18066;52.106;5.534;2022-08-07T13:20:18;1.90;;;1.30;;
18296;SDS011;18066;52.106;5.534;2022-08-07T13:22:51;1.63;;;1.45;;
18296;SDS011;18066;52.106;5.534;2022-08-07T13:25:24;3.00;;;2.03;;
18296;SDS011;18066;52.106;5.534;2022-08-07T13:27:57;2.58;;;1.73;;
18296;SDS011;18066;52.106;5.534;2022-08-07T13:30:28;3.50;;;1.77;;
18296;SDS011;18066;52.106;5.534;2022-08-07T13:32:57;5.80;;;1.95;;
18296;SDS011;18066;52.106;5.534;2022-08-07T13:35:35;3.17;;;2.05;;
18296;SDS011;18066;52.106;5.534;2022-08-07T13:38:06;1.80;;;1.70;;
18296;SDS011;18066;52.106;5.534;2022-08-07T13:40:42;3.72;;;1.52;;
18296;SDS011;18066;52.106;5.534;2022-08-07T13:43:14;5.30;;;2.45;;
18296;SDS011;18066;52.106;5.534;2022-08-07T13:45:44;3.38;;;2.28;;
18296;SDS011;18066;52.106;5.534;2022-08-07T13:48:13;3.50;;;2.38;;
18296;SDS011;18066;52.106;5.534;2022-08-07T13:50:42;3.58;;;2.35;;
18296;SDS011;18066;52.106;5.534;2022-08-07T13:53:12;2.28;;;1.77;;
18296;SDS011;18066;52.106;5.534;2022-08-07T13:55:45;3.45;;;2.40;;
18296;SDS011;18066;52.106;5.534;2022-08-07T13:58:15;3.92;;;2.30;;
18296;SDS011;18066;52.106;5.534;2022-08-07T14:01:08;2.88;;;2.67;;
18296;SDS011;18066;52.106;5.534;2022-08-07T14:03:37;2.42;;;2.00;;
18296;SDS011;18066;52.106;5.534;2022-08-07T14:06:06;2.85;;;2.17;;
18296;SDS011;18066;52.106;5.534;2022-08-07T14:08:35;3.33;;;2.20;;
18296;SDS011;18066;52.106;5.534;2022-08-07T14:11:08;4.07;;;2.17;;
18296;SDS011;18066;52.106;5.534;2022-08-07T14:13:40;2.42;;;1.77;;
18296;SDS011;18066;52.106;5.534;2022-08-07T14:16:12;2.70;;;2.08;;
18296;SDS011;18066;52.106;5.534;2022-08-07T14:18:43;3.38;;;1.73;;
18296;SDS011;18066;52.106;5.534;2022-08-07T14:21:12;5.00;;;1.52;;
18296;SDS011;18066;52.106;5.534;2022-08-07T14:23:42;1.67;;;1.45;;
18296;SDS011;18066;52.106;5.534;2022-08-07T14:26:16;2.78;;;1.73;;
18296;SDS011;18066;52.106;5.534;2022-08-07T14:28:46;3.50;;;1.77;;
18296;SDS011;18066;52.106;5.534;2022-08-07T14:31:15;3.35;;;1.65;;
18296;SDS011;18066;52.106;5.534;2022-08-07T14:33:43;2.15;;;1.60;;
18296;SDS011;18066;52.106;5.534;2022-08-07T14:36:12;2.35;;;1.45;;
18296;SDS011;18066;52.106;5.534;2022-08-07T14:38:39;2.65;;;1.60;;
18296;SDS011;18066;52.106;5.534;2022-08-07T14:41:10;3.00;;;1.42;;
18296;SDS011;18066;52.106;5.534;2022-08-07T14:43:39;1.60;;;1.50;;
18296;SDS011;18066;52.106;5.534;2022-08-07T14:46:07;2.78;;;1.40;;
18296;SDS011;18066;52.106;5.534;2022-08-07T14:48:38;2.10;;;1.20;;
18296;SDS011;18066;52.106;5.534;2022-08-07T14:51:08;5.35;;;1.20;;
18296;SDS011;18066;52.106;5.534;2022-08-07T14:53:38;1.73;;;0.90;;
18296;SDS011;18066;52.106;5.534;2022-08-07T14:56:06;1.30;;;1.00;;
18296;SDS011;18066;52.106;5.534;2022-08-07T14:58:36;2.05;;;0.90;;
18296;SDS011;18066;52.106;5.534;2022-08-07T15:01:05;1.15;;;1.00;;
18296;SDS011;18066;52.106;5.534;2022-08-07T15:03:35;0.90;;;0.90;;
18296;SDS011;18066;52.106;5.534;2022-08-07T15:06:05;1.50;;;0.80;;
18296;SDS011;18066;52.106;5.534;2022-08-07T15:08:33;1.55;;;0.98;;
18296;SDS011;18066;52.106;5.534;2022-08-07T15:11:03;4.50;;;1.02;;
18296;SDS011;18066;52.106;5.534;2022-08-07T15:13:33;3.00;;;1.00;;
18296;SDS011;18066;52.106;5.534;2022-08-07T15:16:05;2.17;;;1.02;;